createdAt,value
2023-02-27T00:00:00.978Z,0.26
2023-02-27T00:02:27.717Z,0.43
2023-02-27T00:04:54.747Z,0.47
2023-02-27T00:07:25.920Z,0.57
2023-02-27T00:09:53.258Z,0.53
2023-02-27T00:12:20.239Z,0.46
2023-02-27T00:14:47.057Z,0.33
2023-02-27T00:17:13.877Z,0.39
2023-02-27T00:19:40.541Z,0.37
2023-02-27T00:22:07.250Z,0.31
2023-02-27T00:24:33.996Z,0.37
2023-02-27T00:27:00.788Z,0.26
2023-02-27T00:29:27.464Z,0.35
2023-02-27T00:31:54.350Z,0.42
2023-02-27T00:34:21.257Z,0.32
2023-02-27T00:36:47.910Z,0.40
2023-02-27T00:39:15.923Z,0.26
2023-02-27T00:41:42.627Z,0.30
2023-02-27T00:44:09.366Z,0.23
2023-02-27T00:46:36.754Z,0.16
2023-02-27T00:49:04.092Z,0.13
2023-02-27T00:51:30.841Z,0.15
2023-02-27T00:53:57.723Z,0.08
2023-02-27T00:56:24.594Z,0.06
2023-02-27T00:58:51.301Z,0.05
2023-02-27T01:01:18.005Z,0.15
2023-02-27T01:03:44.852Z,0.11
2023-02-27T01:06:11.998Z,0.02
2023-02-27T01:08:38.791Z,-0.06
2023-02-27T01:11:05.927Z,-0.15
2023-02-27T01:13:32.700Z,-0.15
2023-02-27T01:15:59.451Z,-0.15
2023-02-27T01:18:26.185Z,-0.20
2023-02-27T01:20:56.822Z,-0.20
2023-02-27T01:23:23.638Z,-0.17
2023-02-27T01:25:50.464Z,-0.23
2023-02-27T01:28:17.187Z,-0.27
2023-02-27T01:30:44.237Z,-0.41
2023-02-27T01:33:14.539Z,-0.38
2023-02-27T01:35:41.210Z,-0.27
2023-02-27T01:38:07.954Z,-0.29
2023-02-27T01:40:39.991Z,-0.27
2023-02-27T01:43:14.361Z,-0.38
2023-02-27T01:45:42.724Z,-0.33
2023-02-27T01:48:26.830Z,-0.34
2023-02-27T01:50:58.850Z,-0.38
2023-02-27T01:53:28.816Z,-0.32
2023-02-27T01:56:00.823Z,-0.34
2023-02-27T01:58:27.767Z,-0.29
2023-02-27T02:00:55.747Z,-0.27
2023-02-27T02:03:28.867Z,-0.40
2023-02-27T02:05:58.238Z,-0.31
2023-02-27T02:08:29.123Z,-0.25
2023-02-27T02:10:58.595Z,-0.25
2023-02-27T02:13:25.837Z,-0.20
2023-02-27T02:16:06.938Z,-0.15
2023-02-27T02:18:53.711Z,-0.10
2023-02-27T02:21:44.855Z,-0.09
2023-02-27T02:25:01.335Z,-0.09
2023-02-27T02:27:46.772Z,-0.15
2023-02-27T02:30:24.180Z,-0.21
2023-02-27T02:33:09.541Z,-0.21
2023-02-27T02:36:04.133Z,-0.24
2023-02-27T02:39:07.585Z,-0.37
2023-02-27T02:41:58.655Z,-0.38
2023-02-27T02:44:49.889Z,-0.39
2023-02-27T02:47:21.049Z,-0.45
2023-02-27T02:50:00.865Z,-0.44
2023-02-27T02:52:54.947Z,-0.45
2023-02-27T02:55:32.706Z,-0.37
2023-02-27T02:58:11.405Z,-0.33
2023-02-27T03:00:48.689Z,-0.32
2023-02-27T03:03:24.268Z,-0.37
2023-02-27T03:05:58.016Z,-0.45
2023-02-27T03:08:34.273Z,-0.46
2023-02-27T03:11:03.810Z,-0.46
2023-02-27T03:13:36.644Z,-0.45
2023-02-27T03:16:06.268Z,-0.53
2023-02-27T03:18:40.796Z,-0.67
2023-02-27T03:21:15.997Z,-0.80
2023-02-27T03:23:45.048Z,-0.75
2023-02-27T03:26:15.018Z,-0.77
2023-02-27T03:28:55.901Z,-0.91
2023-02-27T03:31:30.346Z,-0.94
2023-02-27T03:34:04.657Z,-1.32
2023-02-27T03:36:59.352Z,-1.17
2023-02-27T03:39:38.141Z,-0.97
2023-02-27T03:42:16.548Z,-1.00
2023-02-27T03:45:33.886Z,-0.99
2023-02-27T03:48:02.535Z,-1.18
2023-02-27T03:50:29.807Z,-1.11
2023-02-27T03:52:57.416Z,-1.27
2023-02-27T03:55:34.959Z,-1.23
2023-02-27T03:58:02.142Z,-1.21
2023-02-27T04:00:29.589Z,-1.25
2023-02-27T04:02:59.314Z,-1.43
2023-02-27T04:05:28.642Z,-1.35
2023-02-27T04:08:26.137Z,-1.32
2023-02-27T04:11:04.688Z,-1.28
2023-02-27T04:13:37.108Z,-1.28
2023-02-27T04:16:34.898Z,-1.30
2023-02-27T04:19:17.028Z,-1.36
2023-02-27T04:22:15.598Z,-1.40
2023-02-27T04:24:48.202Z,-1.37
2023-02-27T04:27:23.130Z,-1.45
2023-02-27T04:30:08.430Z,-1.56
2023-02-27T04:32:41.331Z,-1.58
2023-02-27T04:35:26.277Z,-1.60
2023-02-27T04:38:00.107Z,-1.58
2023-02-27T04:40:39.029Z,-1.53
2023-02-27T04:43:09.771Z,-1.59
2023-02-27T04:45:41.365Z,-1.89
2023-02-27T04:48:26.265Z,-1.85
2023-02-27T04:51:16.620Z,-1.59
2023-02-27T04:54:00.696Z,-1.52
2023-02-27T04:56:34.929Z,-1.53
2023-02-27T04:59:19.446Z,-1.42
2023-02-27T05:02:02.117Z,-1.55
2023-02-27T05:04:33.011Z,-1.51
2023-02-27T05:07:02.123Z,-1.54
2023-02-27T05:09:38.563Z,-1.49
2023-02-27T05:12:37.460Z,-1.51
2023-02-27T05:15:40.117Z,-1.57
2023-02-27T05:18:10.356Z,-1.65
2023-02-27T05:20:49.205Z,-1.65
2023-02-27T05:23:24.375Z,-1.67
2023-02-27T05:26:16.950Z,-1.78
2023-02-27T05:28:55.415Z,-1.75
2023-02-27T05:31:51.688Z,-1.74
2023-02-27T05:34:35.388Z,-1.71
2023-02-27T05:37:15.023Z,-1.78
2023-02-27T05:39:45.127Z,-1.81
2023-02-27T05:42:18.313Z,-1.64
2023-02-27T05:44:53.022Z,-1.48
2023-02-27T05:47:23.641Z,-1.48
2023-02-27T05:49:56.514Z,-1.56
2023-02-27T05:52:25.147Z,-1.50
2023-02-27T05:55:03.933Z,-1.46
2023-02-27T05:57:44.138Z,-1.28
2023-02-27T06:00:34.912Z,-1.35
2023-02-27T06:03:01.642Z,-1.30
2023-02-27T06:05:29.315Z,-1.34
2023-02-27T06:07:56.054Z,-1.53
2023-02-27T06:10:23.664Z,-1.55
2023-02-27T06:12:50.422Z,-1.53
2023-02-27T06:15:18.752Z,-1.57
2023-02-27T06:17:45.605Z,-1.61
2023-02-27T06:20:13.048Z,-1.64
2023-02-27T06:22:39.823Z,-1.65
2023-02-27T06:25:06.915Z,-1.64
2023-02-27T06:27:33.590Z,-1.60
2023-02-27T06:30:00.411Z,-1.63
2023-02-27T06:32:28.023Z,-1.62
2023-02-27T06:34:55.001Z,-1.58
2023-02-27T06:37:22.610Z,-1.73
2023-02-27T06:39:49.333Z,-1.72
2023-02-27T06:42:16.408Z,-1.82
2023-02-27T06:44:43.097Z,-1.86
2023-02-27T06:47:09.879Z,-1.78
2023-02-27T06:49:36.686Z,-1.66
2023-02-27T06:52:03.450Z,-1.62
2023-02-27T06:54:30.177Z,-1.59
2023-02-27T06:56:56.977Z,-1.55
2023-02-27T06:59:23.689Z,-1.55
2023-02-27T07:01:50.389Z,-1.60
2023-02-27T07:04:17.579Z,-1.56
2023-02-27T07:07:34.942Z,-1.53
2023-02-27T07:09:31.505Z,-1.52
2023-02-27T07:11:58.192Z,-1.55
2023-02-27T07:14:25.928Z,-1.46
2023-02-27T07:16:55.526Z,-1.36
2023-02-27T07:19:23.408Z,-1.27
2023-02-27T07:21:50.795Z,-1.19
2023-02-27T07:24:17.723Z,-1.41
2023-02-27T07:26:44.451Z,-1.31
2023-02-27T07:29:11.353Z,-1.16
2023-02-27T07:31:38.263Z,-1.06
2023-02-27T07:34:05.029Z,-0.95
2023-02-27T07:36:31.744Z,-0.83
2023-02-27T07:38:58.796Z,-0.88
2023-02-27T07:41:30.799Z,-0.82
2023-02-27T07:44:00.397Z,-0.67
2023-02-27T07:46:27.958Z,-0.68
2023-02-27T07:48:55.156Z,-0.59
2023-02-27T07:51:21.988Z,-0.46
2023-02-27T07:53:48.737Z,-0.39
2023-02-27T07:56:15.733Z,-0.27
2023-02-27T07:58:42.541Z,-0.19
2023-02-27T08:01:09.300Z,-0.24
2023-02-27T08:03:36.148Z,-0.08
2023-02-27T08:06:02.931Z,-0.02
2023-02-27T08:08:29.846Z,0.05
2023-02-27T08:10:56.826Z,0.07
2023-02-27T08:13:42.292Z,0.11
2023-02-27T08:16:09.529Z,0.16
2023-02-27T08:18:36.338Z,0.42
2023-02-27T08:21:05.120Z,0.62
2023-02-27T08:23:34.565Z,0.63
2023-02-27T08:26:02.536Z,0.75
2023-02-27T08:28:29.507Z,0.92
2023-02-27T08:30:56.578Z,1.00
2023-02-27T08:33:24.542Z,1.12
2023-02-27T08:35:51.247Z,1.12
2023-02-27T08:38:17.975Z,1.34
2023-02-27T08:40:44.692Z,1.50
2023-02-27T08:43:11.391Z,1.51
2023-02-27T08:45:38.143Z,1.39
2023-02-27T08:48:05.196Z,1.53
2023-02-27T08:50:31.953Z,1.68
2023-02-27T08:52:58.674Z,1.41
2023-02-27T08:55:25.494Z,1.66
2023-02-27T08:57:52.224Z,1.49
2023-02-27T09:00:19.456Z,1.91
2023-02-27T09:02:46.270Z,2.03
2023-02-27T09:05:13.650Z,2.18
2023-02-27T09:07:40.511Z,1.67
2023-02-27T09:10:07.570Z,2.28
2023-02-27T09:12:34.346Z,2.20
2023-02-27T09:15:01.183Z,2.39
2023-02-27T09:17:27.892Z,2.18
2023-02-27T09:19:57.069Z,2.27
2023-02-27T09:22:24.747Z,2.52
2023-02-27T09:24:51.632Z,2.45
2023-02-27T09:27:18.359Z,2.62
2023-02-27T09:29:45.070Z,2.80
2023-02-27T09:32:12.526Z,2.57
2023-02-27T09:34:39.371Z,2.77
2023-02-27T09:37:06.094Z,2.86
2023-02-27T09:39:32.806Z,3.05
2023-02-27T09:42:19.476Z,3.13
2023-02-27T09:44:49.574Z,3.30
2023-02-27T09:47:26.890Z,3.28
2023-02-27T09:50:04.316Z,3.05
2023-02-27T09:52:35.323Z,3.38
2023-02-27T09:55:03.184Z,3.34
2023-02-27T09:57:51.990Z,3.55
2023-02-27T10:00:50.855Z,3.75
2023-02-27T10:03:55.438Z,3.72
2023-02-27T10:06:30.923Z,3.70
2023-02-27T10:09:37.477Z,3.80
2023-02-27T10:12:25.205Z,4.14
2023-02-27T10:15:05.934Z,4.23
2023-02-27T10:17:38.894Z,4.36
2023-02-27T10:20:17.046Z,4.17
2023-02-27T10:22:47.350Z,4.54
2023-02-27T10:25:30.873Z,4.31
2023-02-27T10:28:11.381Z,4.01
2023-02-27T10:30:38.587Z,4.11
2023-02-27T10:33:15.208Z,3.88
2023-02-27T10:35:44.825Z,4.15
2023-02-27T10:38:31.629Z,3.86
2023-02-27T10:41:00.417Z,3.91
2023-02-27T10:43:27.175Z,3.80
2023-02-27T10:45:54.563Z,4.02
2023-02-27T10:48:23.112Z,4.01
2023-02-27T10:50:53.965Z,4.29
2023-02-27T10:53:27.155Z,4.01
2023-02-27T10:56:07.095Z,4.44
2023-02-27T10:58:38.186Z,4.42
2023-02-27T11:01:07.816Z,4.14
2023-02-27T11:03:37.675Z,4.35
2023-02-27T11:06:26.659Z,4.49
2023-02-27T11:09:17.700Z,4.72
2023-02-27T11:11:44.680Z,5.08
2023-02-27T11:14:31.541Z,4.99
2023-02-27T11:17:03.329Z,5.07
2023-02-27T11:19:34.168Z,5.04
2023-02-27T11:22:06.759Z,5.35
2023-02-27T11:24:34.459Z,5.12
2023-02-27T11:27:22.078Z,5.22
2023-02-27T11:30:22.710Z,5.10
2023-02-27T11:32:51.487Z,5.28
2023-02-27T11:35:29.687Z,4.86
2023-02-27T11:37:59.937Z,4.85
2023-02-27T11:40:41.030Z,5.02
2023-02-27T11:43:16.901Z,5.47
2023-02-27T11:46:29.144Z,5.88
2023-02-27T11:49:11.874Z,5.51
2023-02-27T11:52:02.481Z,5.95
2023-02-27T11:54:42.897Z,5.48
2023-02-27T11:57:33.834Z,5.63
2023-02-27T12:00:19.829Z,5.81
2023-02-27T12:03:22.081Z,5.96
2023-02-27T12:05:56.063Z,6.45
2023-02-27T12:08:54.011Z,6.10
2023-02-27T12:11:30.160Z,6.42
2023-02-27T12:14:23.386Z,6.02
2023-02-27T12:16:59.219Z,5.87
2023-02-27T12:19:56.265Z,5.90
2023-02-27T12:22:29.100Z,5.97
2023-02-27T12:25:20.997Z,5.71
2023-02-27T12:28:03.151Z,5.98
2023-02-27T12:30:39.141Z,5.86
2023-02-27T12:33:42.095Z,5.89
2023-02-27T12:36:14.094Z,5.72
2023-02-27T12:38:42.045Z,5.68
2023-02-27T12:41:23.446Z,6.03
2023-02-27T12:43:56.152Z,6.21
2023-02-27T12:46:50.724Z,5.97
2023-02-27T12:50:00.553Z,6.22
2023-02-27T12:52:44.361Z,6.35
2023-02-27T12:55:17.905Z,6.01
2023-02-27T12:58:31.374Z,6.01
2023-02-27T13:01:01.778Z,6.22
2023-02-27T13:03:51.589Z,6.01
2023-02-27T13:06:33.149Z,5.74
2023-02-27T13:09:15.687Z,5.78
2023-02-27T13:11:54.287Z,5.68
2023-02-27T13:14:30.346Z,5.53
2023-02-27T13:17:02.403Z,5.64
2023-02-27T13:19:53.165Z,5.58
2023-02-27T13:22:29.117Z,5.88
2023-02-27T13:25:00.145Z,5.85
2023-02-27T13:27:33.780Z,5.78
2023-02-27T13:30:03.249Z,5.49
2023-02-27T13:32:44.942Z,5.85
2023-02-27T13:35:24.153Z,5.65
2023-02-27T13:37:51.078Z,6.10
2023-02-27T13:40:47.224Z,6.27
2023-02-27T13:43:40.553Z,6.52
2023-02-27T13:46:28.479Z,6.48
2023-02-27T13:49:20.092Z,5.94
2023-02-27T13:52:00.426Z,6.03
2023-02-27T13:54:39.776Z,6.14
2023-02-27T13:57:17.987Z,6.02
2023-02-27T13:59:53.564Z,6.23
2023-02-27T14:02:46.591Z,6.43
2023-02-27T14:05:31.095Z,5.85
2023-02-27T14:08:09.075Z,6.03
2023-02-27T14:10:39.201Z,5.72
2023-02-27T14:13:26.821Z,5.91
2023-02-27T14:15:57.019Z,6.23
2023-02-27T14:18:50.130Z,6.34
2023-02-27T14:21:51.690Z,6.02
2023-02-27T14:24:28.380Z,6.03
2023-02-27T14:26:56.517Z,6.52
2023-02-27T14:29:31.253Z,6.45
2023-02-27T14:32:04.888Z,6.58
2023-02-27T14:34:31.927Z,5.96
2023-02-27T14:37:02.468Z,6.13
2023-02-27T14:39:38.692Z,6.18
2023-02-27T14:42:30.802Z,6.17
2023-02-27T14:44:57.820Z,6.27
2023-02-27T14:47:24.477Z,6.57
2023-02-27T14:49:51.267Z,6.58
2023-02-27T14:52:22.431Z,6.33
2023-02-27T14:54:50.275Z,6.27
2023-02-27T14:57:27.126Z,6.63
2023-02-27T14:59:54.788Z,6.21
2023-02-27T15:02:26.091Z,5.91
2023-02-27T15:05:20.876Z,5.93
2023-02-27T15:07:48.157Z,5.80
2023-02-27T15:10:25.888Z,6.06
2023-02-27T15:12:52.846Z,6.21
2023-02-27T15:15:21.268Z,6.58
2023-02-27T15:17:52.887Z,6.91
2023-02-27T15:20:31.933Z,6.75
2023-02-27T15:23:21.944Z,6.40
2023-02-27T15:25:48.720Z,6.19
2023-02-27T15:28:27.875Z,5.97
2023-02-27T15:30:56.544Z,5.95
2023-02-27T15:33:33.524Z,6.10
2023-02-27T15:36:01.589Z,6.01
2023-02-27T15:38:33.633Z,6.24
2023-02-27T15:41:02.587Z,6.07
2023-02-27T15:43:30.550Z,6.02
2023-02-27T15:45:58.373Z,6.31
2023-02-27T15:48:25.766Z,6.80
2023-02-27T15:50:57.018Z,7.25
2023-02-27T15:53:29.792Z,7.31
2023-02-27T15:55:59.842Z,7.71
2023-02-27T15:58:29.930Z,8.00
2023-02-27T16:01:11.479Z,7.24
2023-02-27T16:03:43.996Z,6.76
2023-02-27T16:06:23.495Z,6.44
2023-02-27T16:08:59.271Z,6.36
2023-02-27T16:11:31.891Z,6.01
2023-02-27T16:13:59.429Z,5.91
2023-02-27T16:16:28.519Z,5.80
2023-02-27T16:19:00.147Z,5.74
2023-02-27T16:21:31.137Z,5.43
2023-02-27T16:24:19.179Z,5.50
2023-02-27T16:26:51.374Z,5.39
2023-02-27T16:29:21.357Z,5.19
2023-02-27T16:31:51.573Z,5.44
2023-02-27T16:34:44.980Z,5.39
2023-02-27T16:37:21.929Z,5.50
2023-02-27T16:39:54.496Z,5.30
2023-02-27T16:42:21.846Z,5.53
2023-02-27T16:44:48.667Z,5.57
2023-02-27T16:47:15.718Z,5.49
2023-02-27T16:49:44.447Z,5.46
2023-02-27T16:52:12.062Z,5.32
2023-02-27T16:54:38.753Z,5.42
2023-02-27T16:57:05.510Z,5.41
2023-02-27T16:59:36.107Z,5.25
2023-02-27T17:02:07.221Z,5.22
2023-02-27T17:04:34.017Z,5.29
2023-02-27T17:07:06.399Z,5.24
2023-02-27T17:09:33.692Z,5.21
2023-02-27T17:12:00.389Z,5.16
2023-02-27T17:14:27.111Z,4.95
2023-02-27T17:16:53.925Z,5.02
2023-02-27T17:19:22.285Z,4.99
2023-02-27T17:21:50.544Z,4.89
2023-02-27T17:24:17.683Z,4.93
2023-02-27T17:26:44.435Z,4.85
2023-02-27T17:29:12.172Z,4.79
2023-02-27T17:31:38.964Z,4.68
2023-02-27T17:34:05.751Z,4.69
2023-02-27T17:36:32.742Z,4.50
2023-02-27T17:39:02.798Z,4.39
2023-02-27T17:41:31.639Z,4.36
2023-02-27T17:43:59.589Z,4.45
2023-02-27T17:46:28.562Z,4.44
2023-02-27T17:49:00.048Z,4.40
2023-02-27T17:51:28.869Z,4.40
2023-02-27T17:53:56.005Z,4.45
2023-02-27T17:56:23.125Z,4.45
2023-02-27T17:58:50.362Z,4.55
2023-02-27T18:01:22.996Z,4.53
2023-02-27T18:03:50.415Z,4.55
2023-02-27T18:06:18.409Z,4.56
2023-02-27T18:08:45.747Z,4.51
2023-02-27T18:11:15.383Z,4.39
2023-02-27T18:13:42.471Z,4.30
2023-02-27T18:16:10.865Z,4.38
2023-02-27T18:18:40.277Z,4.40
2023-02-27T18:21:10.155Z,4.40
2023-02-27T18:23:37.444Z,4.33
2023-02-27T18:26:04.727Z,4.30
2023-02-27T18:28:31.548Z,4.24
2023-02-27T18:30:58.719Z,4.31
2023-02-27T18:33:25.650Z,4.24
2023-02-27T18:35:52.436Z,4.30
2023-02-27T18:38:19.373Z,4.29
2023-02-27T18:40:46.251Z,4.21
2023-02-27T18:43:13.991Z,4.13
2023-02-27T18:45:41.338Z,4.04
2023-02-27T18:48:08.302Z,3.97
2023-02-27T18:50:35.290Z,3.81
2023-02-27T18:53:02.219Z,3.75
2023-02-27T18:55:28.806Z,3.73
2023-02-27T18:57:55.523Z,3.73
2023-02-27T19:00:24.316Z,3.64
2023-02-27T19:02:51.174Z,3.57
2023-02-27T19:05:18.172Z,3.49
2023-02-27T19:07:44.793Z,3.47
2023-02-27T19:10:12.399Z,3.46
2023-02-27T19:12:39.117Z,3.41
2023-02-27T19:15:06.192Z,3.37
2023-02-27T19:17:33.694Z,3.39
2023-02-27T19:20:00.476Z,3.43
2023-02-27T19:22:29.487Z,3.37
2023-02-27T19:24:57.051Z,3.33
2023-02-27T19:27:23.816Z,3.28
2023-02-27T19:29:50.974Z,3.25
2023-02-27T19:32:18.192Z,3.28
2023-02-27T19:34:45.878Z,3.17
2023-02-27T19:37:12.657Z,3.25
2023-02-27T19:39:39.340Z,3.31
2023-02-27T19:42:05.979Z,3.32
2023-02-27T19:44:32.845Z,3.30
2023-02-27T19:47:00.261Z,3.29
2023-02-27T19:49:27.067Z,3.26
2023-02-27T19:51:53.761Z,3.29
2023-02-27T19:54:20.419Z,3.31
2023-02-27T19:56:47.131Z,3.04
2023-02-27T19:59:13.884Z,2.98
2023-02-27T20:01:41.435Z,3.01
2023-02-27T20:04:08.664Z,2.90
2023-02-27T20:06:41.893Z,2.82
2023-02-27T20:09:11.515Z,2.74
2023-02-27T20:11:38.265Z,2.78
2023-02-27T20:14:05.200Z,2.53
2023-02-27T20:16:35.692Z,2.51
2023-02-27T20:19:07.468Z,2.51
2023-02-27T20:21:34.254Z,2.44
2023-02-27T20:24:01.597Z,2.50
2023-02-27T20:26:40.100Z,2.47
2023-02-27T20:29:27.089Z,2.57
2023-02-27T20:31:55.457Z,2.45
2023-02-27T20:34:26.238Z,2.44
2023-02-27T20:36:54.963Z,2.28
2023-02-27T20:39:21.851Z,2.29
2023-02-27T20:41:49.374Z,2.33
2023-02-27T20:44:16.388Z,2.38
2023-02-27T20:46:44.057Z,2.33
2023-02-27T20:49:14.365Z,2.34
2023-02-27T20:51:41.178Z,2.35
2023-02-27T20:54:11.739Z,2.43
2023-02-27T20:56:41.270Z,2.40
2023-02-27T20:59:11.901Z,2.47
2023-02-27T21:01:38.908Z,2.55
2023-02-27T21:04:06.049Z,2.62
2023-02-27T21:06:33.259Z,2.72
2023-02-27T21:09:04.184Z,2.78
2023-02-27T21:11:32.268Z,2.80
2023-02-27T21:14:03.831Z,2.79
2023-02-27T21:16:30.641Z,2.78
2023-02-27T21:18:57.771Z,2.82
2023-02-27T21:21:28.090Z,2.78
2023-02-27T21:23:55.343Z,2.73
2023-02-27T21:26:25.507Z,2.59
2023-02-27T21:28:54.434Z,2.61
2023-02-27T21:31:23.227Z,2.67
2023-02-27T21:33:51.165Z,2.72
2023-02-27T21:36:18.433Z,2.77
2023-02-27T21:38:46.066Z,2.75
2023-02-27T21:41:13.438Z,2.59
2023-02-27T21:43:40.683Z,2.60
2023-02-27T21:46:09.764Z,2.55
2023-02-27T21:48:36.693Z,2.44
2023-02-27T21:51:04.706Z,2.35
2023-02-27T21:53:31.882Z,2.30
2023-02-27T21:56:09.908Z,2.18
2023-02-27T21:58:37.324Z,2.11
2023-02-27T22:01:18.162Z,2.10
2023-02-27T22:03:47.436Z,1.96
2023-02-27T22:06:15.478Z,1.91
2023-02-27T22:08:43.040Z,1.85
2023-02-27T22:11:10.626Z,1.79
2023-02-27T22:13:37.814Z,1.74
2023-02-27T22:16:11.994Z,1.73
2023-02-27T22:18:40.686Z,1.63
2023-02-27T22:21:10.761Z,1.52
2023-02-27T22:23:38.318Z,1.53
2023-02-27T22:26:08.023Z,1.46
2023-02-27T22:28:35.617Z,1.47
2023-02-27T22:31:16.005Z,1.35
2023-02-27T22:33:44.434Z,1.32
2023-02-27T22:36:20.281Z,1.27
2023-02-27T22:38:48.299Z,1.34
2023-02-27T22:41:18.149Z,1.28
2023-02-27T22:43:45.720Z,1.13
2023-02-27T22:46:16.548Z,1.07
2023-02-27T22:48:43.677Z,1.05
2023-02-27T22:51:14.627Z,1.03
2023-02-27T22:53:43.515Z,0.98
2023-02-27T22:56:13.177Z,0.88
2023-02-27T22:58:41.784Z,0.85
2023-02-27T23:01:22.823Z,0.79
2023-02-27T23:03:51.994Z,0.78
2023-02-27T23:06:21.926Z,0.73
2023-02-27T23:08:49.104Z,0.65
2023-02-27T23:11:17.506Z,0.64
2023-02-27T23:13:44.677Z,0.58
2023-02-27T23:16:13.534Z,0.59
2023-02-27T23:18:42.197Z,0.56
2023-02-27T23:21:10.123Z,0.52
2023-02-27T23:23:37.097Z,0.50
2023-02-27T23:26:05.806Z,0.49
2023-02-27T23:28:35.213Z,0.50
2023-02-27T23:31:02.466Z,0.50
2023-02-27T23:33:30.031Z,0.49
2023-02-27T23:36:00.949Z,0.43
2023-02-27T23:38:28.524Z,0.42
2023-02-27T23:40:55.556Z,0.40
2023-02-27T23:43:22.815Z,0.39
2023-02-27T23:45:49.678Z,0.22
2023-02-27T23:48:16.631Z,0.24
2023-02-27T23:50:44.732Z,0.25
2023-02-27T23:53:13.616Z,0.19
2023-02-27T23:55:41.454Z,0.16
2023-02-27T23:58:10.383Z,0.14
